Arcturus, Minnesota
Current Conditions -  °F | °C
As of 4:55 AM on Friday 31 Oct 2014 (Local Time) from KGPZ Reporting Station
Few Clouds Few Clouds  
Wind Chill: 15°   Ceiling: Unl
Heat Index: 25°   Visibility: 10mi
Dew Point: 16°   Wind: 9mph
Humidity: 69%   Direction: 360°N
Pressure: 30.5"   Gusts: 18mph
Location:  47.3121°N, 93.3823°W
Report Text: KGPZ 310955Z AUTO 36008G16KT 10SM FEW030 M04/M09 A3050 RMK AO1
Loading
Personal Weather Stations






























Interactive Weather Map
Tropical Storm Tracking
New forecast layout! Learn more

10-Day Weather Forecast

Advertisements
Track Severe Weather on mobile